sensor_id;sensor_type;location;lat;lon;timestamp;P1;durP1;ratioP1;P2;durP2;ratioP2
47225;SDS011;32965;64.142;-21.912;2022-10-17T06:51:23;1.57;;;0.63;;
47225;SDS011;32965;64.142;-21.912;2022-10-17T06:53:58;1.53;;;0.50;;
47225;SDS011;32965;64.142;-21.912;2022-10-17T06:56:59;2.00;;;0.40;;
47225;SDS011;32965;64.142;-21.912;2022-10-17T07:39:42;2.23;;;0.80;;
47225;SDS011;32965;64.142;-21.912;2022-10-17T07:46:03;1.20;;;0.50;;
47225;SDS011;32965;64.142;-21.912;2022-10-17T07:48:36;3.13;;;0.50;;
47225;SDS011;32965;64.142;-21.912;2022-10-17T07:51:26;3.07;;;0.80;;
47225;SDS011;32965;64.142;-21.912;2022-10-17T07:54:18;4.63;;;0.70;;
47225;SDS011;32965;64.142;-21.912;2022-10-17T08:01:12;3.20;;;0.83;;
47225;SDS011;32965;64.142;-21.912;2022-10-17T08:04:46;2.20;;;0.93;;
47225;SDS011;32965;64.142;-21.912;2022-10-17T08:07:28;1.30;;;0.50;;
47225;SDS011;32965;64.142;-21.912;2022-10-17T08:10:09;4.20;;;1.10;;
47225;SDS011;32965;64.142;-21.912;2022-10-17T08:12:43;4.50;;;1.10;;
47225;SDS011;32965;64.142;-21.912;2022-10-17T08:15:57;5.57;;;1.23;;
47225;SDS011;32965;64.142;-21.912;2022-10-17T08:18:55;5.40;;;0.60;;
47225;SDS011;32965;64.142;-21.912;2022-10-17T08:24:28;5.27;;;0.87;;
47225;SDS011;32965;64.142;-21.912;2022-10-17T08:27:21;2.10;;;0.60;;
47225;SDS011;32965;64.142;-21.912;2022-10-17T08:30:09;5.43;;;0.60;;
47225;SDS011;32965;64.142;-21.912;2022-10-17T08:33:04;1.67;;;0.60;;
47225;SDS011;32965;64.142;-21.912;2022-10-17T08:35:59;4.43;;;1.17;;
47225;SDS011;32965;64.142;-21.912;2022-10-17T08:38:46;2.77;;;0.73;;
47225;SDS011;32965;64.142;-21.912;2022-10-17T08:47:57;2.57;;;0.80;;
47225;SDS011;32965;64.142;-21.912;2022-10-17T08:50:49;3.80;;;1.07;;
47225;SDS011;32965;64.142;-21.912;2022-10-17T08:53:39;5.50;;;1.47;;
47225;SDS011;32965;64.142;-21.912;2022-10-17T08:56:52;5.70;;;1.00;;
47225;SDS011;32965;64.142;-21.912;2022-10-17T09:00:21;5.20;;;1.20;;
47225;SDS011;32965;64.142;-21.912;2022-10-17T09:09:02;5.87;;;1.90;;
47225;SDS011;32965;64.142;-21.912;2022-10-17T09:11:53;3.70;;;1.40;;
47225;SDS011;32965;64.142;-21.912;2022-10-17T09:14:43;6.33;;;1.47;;
47225;SDS011;32965;64.142;-21.912;2022-10-17T09:17:54;2.73;;;1.07;;
47225;SDS011;32965;64.142;-21.912;2022-10-17T09:21:01;5.57;;;1.70;;
47225;SDS011;32965;64.142;-21.912;2022-10-17T09:24:00;4.10;;;1.63;;
47225;SDS011;32965;64.142;-21.912;2022-10-17T09:26:52;7.30;;;2.03;;
47225;SDS011;32965;64.142;-21.912;2022-10-17T09:29:49;6.83;;;2.33;;
47225;SDS011;32965;64.142;-21.912;2022-10-17T09:32:58;5.53;;;2.17;;
47225;SDS011;32965;64.142;-21.912;2022-10-17T09:39:01;4.13;;;1.30;;
47225;SDS011;32965;64.142;-21.912;2022-10-17T09:42:25;7.17;;;2.20;;
47225;SDS011;32965;64.142;-21.912;2022-10-17T09:45:58;4.78;;;2.20;;
47225;SDS011;32965;64.142;-21.912;2022-10-17T09:48:36;7.07;;;2.30;;
47225;SDS011;32965;64.142;-21.912;2022-10-17T10:00:32;11.88;;;3.15;;
47225;SDS011;32965;64.142;-21.912;2022-10-17T10:03:19;9.47;;;1.70;;
47225;SDS011;32965;64.142;-21.912;2022-10-17T10:06:14;7.50;;;2.23;;
47225;SDS011;32965;64.142;-21.912;2022-10-17T10:12:32;9.83;;;2.03;;
47225;SDS011;32965;64.142;-21.912;2022-10-17T10:15:54;7.57;;;2.00;;
47225;SDS011;32965;64.142;-21.912;2022-10-17T10:19:37;12.13;;;2.43;;
47225;SDS011;32965;64.142;-21.912;2022-10-17T10:22:46;5.67;;;1.57;;
47225;SDS011;32965;64.142;-21.912;2022-10-17T10:26:16;6.03;;;1.57;;
47225;SDS011;32965;64.142;-21.912;2022-10-17T10:29:17;2.57;;;1.20;;
47225;SDS011;32965;64.142;-21.912;2022-10-17T10:32:27;4.83;;;0.83;;
47225;SDS011;32965;64.142;-21.912;2022-10-17T10:35:28;4.87;;;1.20;;
47225;SDS011;32965;64.142;-21.912;2022-10-17T10:38:16;3.17;;;0.90;;
47225;SDS011;32965;64.142;-21.912;2022-10-17T10:41:08;2.60;;;0.82;;
47225;SDS011;32965;64.142;-21.912;2022-10-17T10:44:01;5.60;;;1.00;;
47225;SDS011;32965;64.142;-21.912;2022-10-17T10:47:25;3.63;;;0.87;;
47225;SDS011;32965;64.142;-21.912;2022-10-17T10:56:51;4.22;;;1.13;;
47225;SDS011;32965;64.142;-21.912;2022-10-17T11:05:51;6.03;;;1.57;;
47225;SDS011;32965;64.142;-21.912;2022-10-17T11:11:20;3.57;;;1.20;;
47225;SDS011;32965;64.142;-21.912;2022-10-17T11:21:35;2.27;;;1.07;;
47225;SDS011;32965;64.142;-21.912;2022-10-17T11:27:04;4.13;;;1.30;;
47225;SDS011;32965;64.142;-21.912;2022-10-17T11:29:52;3.47;;;1.17;;
47225;SDS011;32965;64.142;-21.912;2022-10-17T11:36:06;6.90;;;1.80;;
47225;SDS011;32965;64.142;-21.912;2022-10-17T11:38:59;6.50;;;1.75;;
47225;SDS011;32965;64.142;-21.912;2022-10-17T11:45:46;6.00;;;2.27;;
47225;SDS011;32965;64.142;-21.912;2022-10-17T11:52:19;6.93;;;2.23;;
47225;SDS011;32965;64.142;-21.912;2022-10-17T11:55:43;9.27;;;3.00;;
47225;SDS011;32965;64.142;-21.912;2022-10-17T11:58:49;10.13;;;2.57;;
47225;SDS011;32965;64.142;-21.912;2022-10-17T12:11:06;7.03;;;1.80;;
47225;SDS011;32965;64.142;-21.912;2022-10-17T12:18:07;4.83;;;1.47;;
47225;SDS011;32965;64.142;-21.912;2022-10-17T12:28:46;3.43;;;1.57;;
47225;SDS011;32965;64.142;-21.912;2022-10-17T12:40:58;1.87;;;1.20;;
47225;SDS011;32965;64.142;-21.912;2022-10-17T12:47:34;3.28;;;1.33;;
47225;SDS011;32965;64.142;-21.912;2022-10-17T12:51:20;3.50;;;1.97;;
47225;SDS011;32965;64.142;-21.912;2022-10-17T13:06:47;5.63;;;1.23;;
47225;SDS011;32965;64.142;-21.912;2022-10-17T13:10:30;6.07;;;1.10;;
47225;SDS011;32965;64.142;-21.912;2022-10-17T13:17:26;20.63;;;3.57;;
47225;SDS011;32965;64.142;-21.912;2022-10-17T13:23:20;5.10;;;0.63;;
47225;SDS011;32965;64.142;-21.912;2022-10-17T13:29:43;13.43;;;3.33;;
47225;SDS011;32965;64.142;-21.912;2022-10-17T13:35:37;5.93;;;1.30;;
47225;SDS011;32965;64.142;-21.912;2022-10-17T13:38:29;5.47;;;2.07;;
47225;SDS011;32965;64.142;-21.912;2022-10-17T13:42:01;9.20;;;0.97;;
47225;SDS011;32965;64.142;-21.912;2022-10-17T13:45:36;13.13;;;2.60;;
47225;SDS011;32965;64.142;-21.912;2022-10-17T13:51:24;2.63;;;0.50;;
47225;SDS011;32965;64.142;-21.912;2022-10-17T13:54:44;1.47;;;0.40;;
47225;SDS011;32965;64.142;-21.912;2022-10-17T13:58:15;0.97;;;0.50;;
47225;SDS011;32965;64.142;-21.912;2022-10-17T14:10:29;0.43;;;0.30;;
47225;SDS011;32965;64.142;-21.912;2022-10-17T14:16:42;4.20;;;0.40;;
47225;SDS011;32965;64.142;-21.912;2022-10-17T14:20:18;4.87;;;0.80;;
47225;SDS011;32965;64.142;-21.912;2022-10-17T14:27:29;1.57;;;0.40;;
47225;SDS011;32965;64.142;-21.912;2022-10-17T14:30:35;4.27;;;0.40;;
47225;SDS011;32965;64.142;-21.912;2022-10-17T14:36:53;6.50;;;0.93;;
47225;SDS011;32965;64.142;-21.912;2022-10-17T14:40:33;3.30;;;0.40;;
47225;SDS011;32965;64.142;-21.912;2022-10-17T14:44:26;1.67;;;0.30;;
47225;SDS011;32965;64.142;-21.912;2022-10-17T14:47:49;1.10;;;0.40;;
47225;SDS011;32965;64.142;-21.912;2022-10-17T14:51:17;2.77;;;0.40;;
47225;SDS011;32965;64.142;-21.912;2022-10-17T14:54:35;2.73;;;0.60;;
47225;SDS011;32965;64.142;-21.912;2022-10-17T14:57:56;5.47;;;1.80;;
47225;SDS011;32965;64.142;-21.912;2022-10-17T15:06:36;1.57;;;0.33;;
47225;SDS011;32965;64.142;-21.912;2022-10-17T15:09:02;1.17;;;0.40;;
47225;SDS011;32965;64.142;-21.912;2022-10-17T15:12:20;2.17;;;0.67;;
47225;SDS011;32965;64.142;-21.912;2022-10-17T15:17:53;2.90;;;0.37;;
47225;SDS011;32965;64.142;-21.912;2022-10-17T15:23:46;5.57;;;1.00;;
47225;SDS011;32965;64.142;-21.912;2022-10-17T15:26:48;0.67;;;0.40;;
47225;SDS011;32965;64.142;-21.912;2022-10-17T15:29:54;2.60;;;0.20;;
47225;SDS011;32965;64.142;-21.912;2022-10-17T15:36:58;1.98;;;0.30;;
47225;SDS011;32965;64.142;-21.912;2022-10-17T15:40:26;31.23;;;4.07;;
47225;SDS011;32965;64.142;-21.912;2022-10-17T15:46:12;2.03;;;0.47;;
47225;SDS011;32965;64.142;-21.912;2022-10-17T15:51:59;6.67;;;1.57;;
47225;SDS011;32965;64.142;-21.912;2022-10-17T15:55:26;1.73;;;0.80;;
47225;SDS011;32965;64.142;-21.912;2022-10-17T16:01:27;4.00;;;0.97;;
47225;SDS011;32965;64.142;-21.912;2022-10-17T16:07:08;2.93;;;0.70;;
47225;SDS011;32965;64.142;-21.912;2022-10-17T16:09:39;2.97;;;0.73;;
47225;SDS011;32965;64.142;-21.912;2022-10-17T16:12:56;4.70;;;0.33;;
47225;SDS011;32965;64.142;-21.912;2022-10-17T16:16:01;3.37;;;0.50;;
47225;SDS011;32965;64.142;-21.912;2022-10-17T16:24:05;2.43;;;0.83;;
47225;SDS011;32965;64.142;-21.912;2022-10-17T16:27:15;1.30;;;0.57;;
47225;SDS011;32965;64.142;-21.912;2022-10-17T16:43:26;1.40;;;0.77;;
47225;SDS011;32965;64.142;-21.912;2022-10-17T16:46:43;6.50;;;0.90;;
47225;SDS011;32965;64.142;-21.912;2022-10-17T16:50:10;17.73;;;2.63;;
47225;SDS011;32965;64.142;-21.912;2022-10-17T16:53:52;35.50;;;4.30;;
47225;SDS011;32965;64.142;-21.912;2022-10-17T16:57:30;60.83;;;9.33;;
47225;SDS011;32965;64.142;-21.912;2022-10-17T17:01:00;38.13;;;5.77;;
47225;SDS011;32965;64.142;-21.912;2022-10-17T17:04:58;18.53;;;2.90;;
47225;SDS011;32965;64.142;-21.912;2022-10-17T17:11:17;15.07;;;2.73;;
47225;SDS011;32965;64.142;-21.912;2022-10-17T17:20:46;10.50;;;2.77;;
47225;SDS011;32965;64.142;-21.912;2022-10-17T17:26:33;3.70;;;1.30;;
47225;SDS011;32965;64.142;-21.912;2022-10-17T17:36:25;8.00;;;1.40;;
47225;SDS011;32965;64.142;-21.912;2022-10-17T17:46:02;6.00;;;2.13;;
47225;SDS011;32965;64.142;-21.912;2022-10-17T18:14:04;3.30;;;0.90;;
47225;SDS011;32965;64.142;-21.912;2022-10-17T18:17:16;2.53;;;0.97;;
47225;SDS011;32965;64.142;-21.912;2022-10-17T18:34:14;10.10;;;2.73;;
47225;SDS011;32965;64.142;-21.912;2022-10-17T18:37:02;8.90;;;1.83;;
47225;SDS011;32965;64.142;-21.912;2022-10-17T18:42:35;6.73;;;1.70;;
47225;SDS011;32965;64.142;-21.912;2022-10-17T18:46:17;7.53;;;2.10;;
47225;SDS011;32965;64.142;-21.912;2022-10-17T18:49:24;6.27;;;2.03;;
47225;SDS011;32965;64.142;-21.912;2022-10-17T18:52:19;7.20;;;1.88;;
47225;SDS011;32965;64.142;-21.912;2022-10-17T18:58:54;9.80;;;2.97;;
47225;SDS011;32965;64.142;-21.912;2022-10-17T19:01:25;14.40;;;3.33;;
47225;SDS011;32965;64.142;-21.912;2022-10-17T19:15:03;11.70;;;2.60;;
47225;SDS011;32965;64.142;-21.912;2022-10-17T19:18:23;7.23;;;2.47;;
47225;SDS011;32965;64.142;-21.912;2022-10-17T19:22:03;7.90;;;2.30;;
47225;SDS011;32965;64.142;-21.912;2022-10-17T19:25:22;15.17;;;4.63;;
47225;SDS011;32965;64.142;-21.912;2022-10-17T19:28:26;30.97;;;11.90;;
47225;SDS011;32965;64.142;-21.912;2022-10-17T19:30:53;20.10;;;7.17;;
47225;SDS011;32965;64.142;-21.912;2022-10-17T19:33:20;25.00;;;8.73;;
47225;SDS011;32965;64.142;-21.912;2022-10-17T19:35:53;18.27;;;6.50;;
47225;SDS011;32965;64.142;-21.912;2022-10-17T19:38:23;18.90;;;6.13;;
47225;SDS011;32965;64.142;-21.912;2022-10-17T19:40:49;14.10;;;5.63;;
47225;SDS011;32965;64.142;-21.912;2022-10-17T19:43:17;11.73;;;4.47;;
47225;SDS011;32965;64.142;-21.912;2022-10-17T19:45:43;14.53;;;5.83;;
47225;SDS011;32965;64.142;-21.912;2022-10-17T19:48:31;15.33;;;4.90;;
47225;SDS011;32965;64.142;-21.912;2022-10-17T19:51:00;16.20;;;5.87;;
47225;SDS011;32965;64.142;-21.912;2022-10-17T19:53:42;21.57;;;9.00;;
47225;SDS011;32965;64.142;-21.912;2022-10-17T19:56:10;15.83;;;5.43;;
47225;SDS011;32965;64.142;-21.912;2022-10-17T19:58:36;13.50;;;5.23;;
47225;SDS011;32965;64.142;-21.912;2022-10-17T20:01:09;13.80;;;6.20;;
47225;SDS011;32965;64.142;-21.912;2022-10-17T20:03:37;12.70;;;6.17;;
47225;SDS011;32965;64.142;-21.912;2022-10-17T20:06:03;21.97;;;7.33;;
47225;SDS011;32965;64.142;-21.912;2022-10-17T20:08:29;15.40;;;6.17;;
47225;SDS011;32965;64.142;-21.912;2022-10-17T20:10:55;9.43;;;3.47;;
47225;SDS011;32965;64.142;-21.912;2022-10-17T20:13:29;3.33;;;1.80;;
47225;SDS011;32965;64.142;-21.912;2022-10-17T20:15:57;20.10;;;9.27;;
47225;SDS011;32965;64.142;-21.912;2022-10-17T20:18:23;13.53;;;4.40;;
47225;SDS011;32965;64.142;-21.912;2022-10-17T20:20:52;21.05;;;8.35;;
47225;SDS011;32965;64.142;-21.912;2022-10-17T20:23:18;6.10;;;2.40;;
47225;SDS011;32965;64.142;-21.912;2022-10-17T20:25:44;8.53;;;3.20;;
47225;SDS011;32965;64.142;-21.912;2022-10-17T20:28:11;10.80;;;5.23;;
47225;SDS011;32965;64.142;-21.912;2022-10-17T20:30:41;19.77;;;6.97;;
47225;SDS011;32965;64.142;-21.912;2022-10-17T20:33:24;16.63;;;6.47;;
47225;SDS011;32965;64.142;-21.912;2022-10-17T20:35:51;4.63;;;1.27;;
47225;SDS011;32965;64.142;-21.912;2022-10-17T20:38:36;5.33;;;2.50;;
47225;SDS011;32965;64.142;-21.912;2022-10-17T20:41:38;5.93;;;2.27;;
47225;SDS011;32965;64.142;-21.912;2022-10-17T20:44:27;6.30;;;2.60;;
47225;SDS011;32965;64.142;-21.912;2022-10-17T20:47:00;10.30;;;2.50;;
47225;SDS011;32965;64.142;-21.912;2022-10-17T20:49:30;7.28;;;2.95;;
47225;SDS011;32965;64.142;-21.912;2022-10-17T20:52:03;12.30;;;3.90;;
47225;SDS011;32965;64.142;-21.912;2022-10-17T20:54:31;12.83;;;3.53;;
47225;SDS011;32965;64.142;-21.912;2022-10-17T20:56:57;6.37;;;2.87;;
47225;SDS011;32965;64.142;-21.912;2022-10-17T20:59:29;6.67;;;2.90;;
47225;SDS011;32965;64.142;-21.912;2022-10-17T21:01:56;10.83;;;3.40;;
47225;SDS011;32965;64.142;-21.912;2022-10-17T21:04:22;9.67;;;2.93;;
47225;SDS011;32965;64.142;-21.912;2022-10-17T21:06:48;12.00;;;3.33;;
47225;SDS011;32965;64.142;-21.912;2022-10-17T21:09:20;8.07;;;2.90;;
47225;SDS011;32965;64.142;-21.912;2022-10-17T21:11:47;11.83;;;3.70;;
47225;SDS011;32965;64.142;-21.912;2022-10-17T21:14:16;9.17;;;2.93;;
47225;SDS011;32965;64.142;-21.912;2022-10-17T21:16:42;6.67;;;2.53;;
47225;SDS011;32965;64.142;-21.912;2022-10-17T21:19:09;7.97;;;2.80;;
47225;SDS011;32965;64.142;-21.912;2022-10-17T21:22:05;6.03;;;1.70;;
47225;SDS011;32965;64.142;-21.912;2022-10-17T21:24:33;6.87;;;2.73;;
47225;SDS011;32965;64.142;-21.912;2022-10-17T21:26:59;9.67;;;3.03;;
47225;SDS011;32965;64.142;-21.912;2022-10-17T21:29:27;10.57;;;3.00;;
47225;SDS011;32965;64.142;-21.912;2022-10-17T21:34:33;5.97;;;2.50;;
47225;SDS011;32965;64.142;-21.912;2022-10-17T21:37:02;5.73;;;1.80;;
47225;SDS011;32965;64.142;-21.912;2022-10-17T21:39:31;5.90;;;1.80;;
47225;SDS011;32965;64.142;-21.912;2022-10-17T21:41:58;4.17;;;1.83;;
47225;SDS011;32965;64.142;-21.912;2022-10-17T21:44:24;8.07;;;2.37;;
47225;SDS011;32965;64.142;-21.912;2022-10-17T21:46:55;8.40;;;2.55;;
47225;SDS011;32965;64.142;-21.912;2022-10-17T21:49:21;6.70;;;2.35;;
47225;SDS011;32965;64.142;-21.912;2022-10-17T21:51:49;5.23;;;1.87;;
47225;SDS011;32965;64.142;-21.912;2022-10-17T21:54:18;7.57;;;1.53;;
47225;SDS011;32965;64.142;-21.912;2022-10-17T21:56:47;6.50;;;1.83;;
47225;SDS011;32965;64.142;-21.912;2022-10-17T21:59:15;5.67;;;1.73;;
47225;SDS011;32965;64.142;-21.912;2022-10-17T22:01:42;4.13;;;1.30;;
47225;SDS011;32965;64.142;-21.912;2022-10-17T22:04:15;6.03;;;1.37;;
47225;SDS011;32965;64.142;-21.912;2022-10-17T22:06:45;7.97;;;1.90;;
47225;SDS011;32965;64.142;-21.912;2022-10-17T22:09:19;4.33;;;1.73;;
47225;SDS011;32965;64.142;-21.912;2022-10-17T22:11:50;7.13;;;1.90;;
47225;SDS011;32965;64.142;-21.912;2022-10-17T22:14:20;7.60;;;3.70;;
47225;SDS011;32965;64.142;-21.912;2022-10-17T22:16:56;5.93;;;1.87;;
47225;SDS011;32965;64.142;-21.912;2022-10-17T22:19:24;5.80;;;1.50;;
47225;SDS011;32965;64.142;-21.912;2022-10-17T22:21:51;4.77;;;2.03;;
47225;SDS011;32965;64.142;-21.912;2022-10-17T22:24:23;8.37;;;1.83;;
47225;SDS011;32965;64.142;-21.912;2022-10-17T22:26:50;4.33;;;2.10;;
47225;SDS011;32965;64.142;-21.912;2022-10-17T22:29:18;3.43;;;1.30;;
47225;SDS011;32965;64.142;-21.912;2022-10-17T22:31:44;3.20;;;1.17;;
47225;SDS011;32965;64.142;-21.912;2022-10-17T22:34:11;7.67;;;2.50;;
47225;SDS011;32965;64.142;-21.912;2022-10-17T22:36:38;8.87;;;2.07;;
47225;SDS011;32965;64.142;-21.912;2022-10-17T22:39:05;7.40;;;1.50;;
47225;SDS011;32965;64.142;-21.912;2022-10-17T22:41:31;5.93;;;1.30;;
47225;SDS011;32965;64.142;-21.912;2022-10-17T22:43:58;3.20;;;1.20;;
47225;SDS011;32965;64.142;-21.912;2022-10-17T22:46:24;3.30;;;1.20;;
47225;SDS011;32965;64.142;-21.912;2022-10-17T22:48:50;4.70;;;0.90;;
47225;SDS011;32965;64.142;-21.912;2022-10-17T22:51:18;6.30;;;1.77;;
47225;SDS011;32965;64.142;-21.912;2022-10-17T22:53:57;3.90;;;0.93;;
47225;SDS011;32965;64.142;-21.912;2022-10-17T22:56:29;4.93;;;1.10;;
47225;SDS011;32965;64.142;-21.912;2022-10-17T22:58:58;5.50;;;1.50;;
47225;SDS011;32965;64.142;-21.912;2022-10-17T23:01:24;6.50;;;1.25;;
47225;SDS011;32965;64.142;-21.912;2022-10-17T23:03:51;5.97;;;1.53;;
47225;SDS011;32965;64.142;-21.912;2022-10-17T23:06:30;1.57;;;0.90;;
47225;SDS011;32965;64.142;-21.912;2022-10-17T23:09:03;4.00;;;1.20;;
47225;SDS011;32965;64.142;-21.912;2022-10-17T23:11:30;3.20;;;1.07;;
47225;SDS011;32965;64.142;-21.912;2022-10-17T23:13:56;3.67;;;1.40;;
47225;SDS011;32965;64.142;-21.912;2022-10-17T23:16:22;3.63;;;1.10;;
47225;SDS011;32965;64.142;-21.912;2022-10-17T23:18:48;6.17;;;1.30;;
47225;SDS011;32965;64.142;-21.912;2022-10-17T23:21:13;3.23;;;1.10;;
47225;SDS011;32965;64.142;-21.912;2022-10-17T23:23:39;5.20;;;1.50;;
47225;SDS011;32965;64.142;-21.912;2022-10-17T23:26:06;5.03;;;1.70;;
47225;SDS011;32965;64.142;-21.912;2022-10-17T23:28:34;4.88;;;1.45;;
47225;SDS011;32965;64.142;-21.912;2022-10-17T23:31:09;8.30;;;1.87;;
47225;SDS011;32965;64.142;-21.912;2022-10-17T23:33:37;7.67;;;1.80;;
47225;SDS011;32965;64.142;-21.912;2022-10-17T23:36:06;8.43;;;1.30;;
47225;SDS011;32965;64.142;-21.912;2022-10-17T23:38:35;5.67;;;2.10;;
47225;SDS011;32965;64.142;-21.912;2022-10-17T23:41:01;7.03;;;1.60;;
47225;SDS011;32965;64.142;-21.912;2022-10-17T23:43:27;6.40;;;1.37;;
47225;SDS011;32965;64.142;-21.912;2022-10-17T23:45:56;5.97;;;1.80;;
47225;SDS011;32965;64.142;-21.912;2022-10-17T23:50:53;5.43;;;0.90;;
47225;SDS011;32965;64.142;-21.912;2022-10-17T23:53:20;5.22;;;1.80;;
47225;SDS011;32965;64.142;-21.912;2022-10-17T23:55:49;3.53;;;1.20;;
